sensor_id;sensor_type;location;lat;lon;timestamp;P1;durP1;ratioP1;P2;durP2;ratioP2
19404;SDS011;9838;49.384;8.292;2022-10-16T00:02:17;0.60;;;0.43;;
19404;SDS011;9838;49.384;8.292;2022-10-16T00:12:19;1.17;;;0.50;;
19404;SDS011;9838;49.384;8.292;2022-10-16T00:22:20;1.00;;;0.40;;
19404;SDS011;9838;49.384;8.292;2022-10-16T00:32:25;0.40;;;0.30;;
19404;SDS011;9838;49.384;8.292;2022-10-16T00:42:27;0.63;;;0.40;;
19404;SDS011;9838;49.384;8.292;2022-10-16T00:52:28;0.93;;;0.40;;
19404;SDS011;9838;49.384;8.292;2022-10-16T01:02:30;0.93;;;0.50;;
19404;SDS011;9838;49.384;8.292;2022-10-16T01:12:39;0.93;;;0.40;;
19404;SDS011;9838;49.384;8.292;2022-10-16T01:32:45;0.70;;;0.40;;
19404;SDS011;9838;49.384;8.292;2022-10-16T01:43:03;1.13;;;0.40;;
19404;SDS011;9838;49.384;8.292;2022-10-16T01:53:10;0.40;;;0.33;;
19404;SDS011;9838;49.384;8.292;2022-10-16T02:03:15;1.07;;;0.50;;
19404;SDS011;9838;49.384;8.292;2022-10-16T02:13:22;0.93;;;0.20;;
19404;SDS011;9838;49.384;8.292;2022-10-16T02:33:40;1.17;;;0.40;;
19404;SDS011;9838;49.384;8.292;2022-10-16T02:43:43;0.77;;;0.50;;
19404;SDS011;9838;49.384;8.292;2022-10-16T02:53:45;0.60;;;0.40;;
19404;SDS011;9838;49.384;8.292;2022-10-16T03:03:47;0.43;;;0.40;;
19404;SDS011;9838;49.384;8.292;2022-10-16T03:13:49;0.83;;;0.50;;
19404;SDS011;9838;49.384;8.292;2022-10-16T03:23:50;0.53;;;0.40;;
19404;SDS011;9838;49.384;8.292;2022-10-16T03:33:52;0.93;;;0.43;;
19404;SDS011;9838;49.384;8.292;2022-10-16T03:43:54;0.40;;;0.30;;
19404;SDS011;9838;49.384;8.292;2022-10-16T03:53:56;0.70;;;0.40;;
19404;SDS011;9838;49.384;8.292;2022-10-16T04:03:58;0.73;;;0.40;;
19404;SDS011;9838;49.384;8.292;2022-10-16T04:14:00;0.40;;;0.40;;
19404;SDS011;9838;49.384;8.292;2022-10-16T04:24:02;0.60;;;0.50;;
19404;SDS011;9838;49.384;8.292;2022-10-16T04:34:04;0.97;;;0.50;;
19404;SDS011;9838;49.384;8.292;2022-10-16T04:44:06;14.57;;;6.00;;
19404;SDS011;9838;49.384;8.292;2022-10-16T04:54:08;21.37;;;10.57;;
19404;SDS011;9838;49.384;8.292;2022-10-16T05:04:10;19.87;;;8.60;;
19404;SDS011;9838;49.384;8.292;2022-10-16T05:14:12;1.37;;;0.70;;
19404;SDS011;9838;49.384;8.292;2022-10-16T05:24:14;1.00;;;0.50;;
19404;SDS011;9838;49.384;8.292;2022-10-16T05:34:15;1.80;;;0.67;;
19404;SDS011;9838;49.384;8.292;2022-10-16T05:44:17;4.40;;;0.70;;
19404;SDS011;9838;49.384;8.292;2022-10-16T05:54:19;1.23;;;0.67;;
19404;SDS011;9838;49.384;8.292;2022-10-16T06:04:20;1.00;;;0.60;;
19404;SDS011;9838;49.384;8.292;2022-10-16T06:14:22;0.50;;;0.33;;
19404;SDS011;9838;49.384;8.292;2022-10-16T06:24:24;4.03;;;1.33;;
19404;SDS011;9838;49.384;8.292;2022-10-16T06:34:26;1.10;;;0.73;;
19404;SDS011;9838;49.384;8.292;2022-10-16T06:44:27;1.00;;;0.60;;
19404;SDS011;9838;49.384;8.292;2022-10-16T06:54:29;0.37;;;0.37;;
19404;SDS011;9838;49.384;8.292;2022-10-16T07:04:31;0.70;;;0.60;;
19404;SDS011;9838;49.384;8.292;2022-10-16T07:14:32;0.80;;;0.60;;
19404;SDS011;9838;49.384;8.292;2022-10-16T07:24:34;2.30;;;0.60;;
19404;SDS011;9838;49.384;8.292;2022-10-16T07:34:37;1.83;;;0.80;;
19404;SDS011;9838;49.384;8.292;2022-10-16T07:44:38;0.90;;;0.40;;
19404;SDS011;9838;49.384;8.292;2022-10-16T07:54:42;0.80;;;0.47;;
19404;SDS011;9838;49.384;8.292;2022-10-16T08:04:46;2.03;;;0.87;;
19404;SDS011;9838;49.384;8.292;2022-10-16T08:14:57;1.23;;;0.73;;
19404;SDS011;9838;49.384;8.292;2022-10-16T08:24:58;3.90;;;1.87;;
19404;SDS011;9838;49.384;8.292;2022-10-16T08:35:00;1.70;;;1.03;;
19404;SDS011;9838;49.384;8.292;2022-10-16T09:05:42;1.07;;;0.77;;
19404;SDS011;9838;49.384;8.292;2022-10-16T09:25:48;1.27;;;1.00;;
19404;SDS011;9838;49.384;8.292;2022-10-16T09:35:51;1.50;;;0.63;;
19404;SDS011;9838;49.384;8.292;2022-10-16T09:55:57;0.97;;;0.70;;
19404;SDS011;9838;49.384;8.292;2022-10-16T10:05:59;0.80;;;0.57;;
19404;SDS011;9838;49.384;8.292;2022-10-16T10:16:03;1.00;;;0.50;;
19404;SDS011;9838;49.384;8.292;2022-10-16T10:26:12;2.67;;;0.60;;
19404;SDS011;9838;49.384;8.292;2022-10-16T10:36:34;0.57;;;0.40;;
19404;SDS011;9838;49.384;8.292;2022-10-16T10:46:49;1.20;;;0.70;;
19404;SDS011;9838;49.384;8.292;2022-10-16T11:07:25;0.60;;;0.50;;
19404;SDS011;9838;49.384;8.292;2022-10-16T11:17:33;1.07;;;0.50;;
19404;SDS011;9838;49.384;8.292;2022-10-16T11:27:44;0.60;;;0.50;;
19404;SDS011;9838;49.384;8.292;2022-10-16T11:37:50;0.90;;;0.50;;
19404;SDS011;9838;49.384;8.292;2022-10-16T11:58:20;0.90;;;0.53;;
19404;SDS011;9838;49.384;8.292;2022-10-16T12:08:23;0.80;;;0.50;;
19404;SDS011;9838;49.384;8.292;2022-10-16T12:18:27;1.20;;;0.77;;
19404;SDS011;9838;49.384;8.292;2022-10-16T12:28:34;0.90;;;0.60;;
19404;SDS011;9838;49.384;8.292;2022-10-16T12:38:48;0.57;;;0.57;;
19404;SDS011;9838;49.384;8.292;2022-10-16T12:48:51;1.10;;;0.50;;
19404;SDS011;9838;49.384;8.292;2022-10-16T13:29:52;0.87;;;0.50;;
19404;SDS011;9838;49.384;8.292;2022-10-16T13:50:21;1.80;;;1.17;;
19404;SDS011;9838;49.384;8.292;2022-10-16T14:00:25;1.70;;;1.03;;
19404;SDS011;9838;49.384;8.292;2022-10-16T14:10:31;3.77;;;1.40;;
19404;SDS011;9838;49.384;8.292;2022-10-16T14:20:34;0.97;;;0.70;;
19404;SDS011;9838;49.384;8.292;2022-10-16T14:30:36;1.77;;;0.60;;
19404;SDS011;9838;49.384;8.292;2022-10-16T14:40:38;1.47;;;0.70;;
19404;SDS011;9838;49.384;8.292;2022-10-16T14:50:39;3.33;;;0.70;;
19404;SDS011;9838;49.384;8.292;2022-10-16T15:00:42;1.23;;;0.73;;
19404;SDS011;9838;49.384;8.292;2022-10-16T15:10:43;1.13;;;0.70;;
19404;SDS011;9838;49.384;8.292;2022-10-16T15:20:47;1.90;;;0.70;;
19404;SDS011;9838;49.384;8.292;2022-10-16T15:30:52;1.50;;;0.80;;
19404;SDS011;9838;49.384;8.292;2022-10-16T15:40:54;2.50;;;0.70;;
19404;SDS011;9838;49.384;8.292;2022-10-16T15:50:56;1.10;;;0.70;;
19404;SDS011;9838;49.384;8.292;2022-10-16T16:00:59;2.43;;;0.90;;
19404;SDS011;9838;49.384;8.292;2022-10-16T16:11:04;3.90;;;1.00;;
19404;SDS011;9838;49.384;8.292;2022-10-16T16:21:06;1.23;;;0.80;;
19404;SDS011;9838;49.384;8.292;2022-10-16T16:31:08;2.10;;;0.80;;
19404;SDS011;9838;49.384;8.292;2022-10-16T16:41:14;0.97;;;0.70;;
19404;SDS011;9838;49.384;8.292;2022-10-16T16:51:21;1.37;;;0.60;;
19404;SDS011;9838;49.384;8.292;2022-10-16T17:01:24;1.20;;;0.90;;
19404;SDS011;9838;49.384;8.292;2022-10-16T17:11:26;1.80;;;1.03;;
19404;SDS011;9838;49.384;8.292;2022-10-16T17:21:29;1.50;;;0.90;;
19404;SDS011;9838;49.384;8.292;2022-10-16T17:31:34;4.20;;;1.20;;
19404;SDS011;9838;49.384;8.292;2022-10-16T17:41:36;2.13;;;1.10;;
19404;SDS011;9838;49.384;8.292;2022-10-16T17:51:38;0.87;;;0.70;;
19404;SDS011;9838;49.384;8.292;2022-10-16T18:01:40;3.47;;;1.03;;
19404;SDS011;9838;49.384;8.292;2022-10-16T18:11:44;3.07;;;0.90;;
19404;SDS011;9838;49.384;8.292;2022-10-16T18:21:46;1.83;;;0.90;;
19404;SDS011;9838;49.384;8.292;2022-10-16T18:31:49;2.20;;;1.17;;
19404;SDS011;9838;49.384;8.292;2022-10-16T18:41:51;3.50;;;1.17;;
19404;SDS011;9838;49.384;8.292;2022-10-16T18:51:59;1.47;;;0.90;;
19404;SDS011;9838;49.384;8.292;2022-10-16T19:02:03;1.47;;;0.90;;
19404;SDS011;9838;49.384;8.292;2022-10-16T19:12:07;2.23;;;0.87;;
19404;SDS011;9838;49.384;8.292;2022-10-16T19:22:10;1.93;;;1.10;;
19404;SDS011;9838;49.384;8.292;2022-10-16T19:32:14;3.67;;;1.00;;
19404;SDS011;9838;49.384;8.292;2022-10-16T19:42:16;2.63;;;1.07;;
19404;SDS011;9838;49.384;8.292;2022-10-16T19:52:18;1.77;;;1.10;;
19404;SDS011;9838;49.384;8.292;2022-10-16T20:02:22;1.77;;;0.90;;
19404;SDS011;9838;49.384;8.292;2022-10-16T20:12:24;2.53;;;1.10;;
19404;SDS011;9838;49.384;8.292;2022-10-16T20:22:26;2.13;;;1.30;;
19404;SDS011;9838;49.384;8.292;2022-10-16T20:32:28;5.97;;;1.63;;
19404;SDS011;9838;49.384;8.292;2022-10-16T20:42:30;1.50;;;1.10;;
19404;SDS011;9838;49.384;8.292;2022-10-16T20:52:32;2.23;;;1.23;;
19404;SDS011;9838;49.384;8.292;2022-10-16T21:02:34;2.20;;;1.30;;
19404;SDS011;9838;49.384;8.292;2022-10-16T21:12:36;1.47;;;1.03;;
19404;SDS011;9838;49.384;8.292;2022-10-16T21:22:38;1.97;;;1.20;;
19404;SDS011;9838;49.384;8.292;2022-10-16T21:32:40;2.73;;;1.13;;
19404;SDS011;9838;49.384;8.292;2022-10-16T21:42:41;2.33;;;1.40;;
19404;SDS011;9838;49.384;8.292;2022-10-16T21:52:43;1.30;;;0.93;;
19404;SDS011;9838;49.384;8.292;2022-10-16T22:02:45;1.00;;;0.80;;
19404;SDS011;9838;49.384;8.292;2022-10-16T22:12:47;4.30;;;1.00;;
19404;SDS011;9838;49.384;8.292;2022-10-16T22:22:49;2.87;;;0.90;;
19404;SDS011;9838;49.384;8.292;2022-10-16T22:32:51;1.50;;;0.80;;
19404;SDS011;9838;49.384;8.292;2022-10-16T22:42:53;1.10;;;0.70;;
19404;SDS011;9838;49.384;8.292;2022-10-16T22:52:55;1.37;;;0.80;;
19404;SDS011;9838;49.384;8.292;2022-10-16T23:02:57;1.67;;;0.80;;
19404;SDS011;9838;49.384;8.292;2022-10-16T23:12:59;1.27;;;0.70;;
19404;SDS011;9838;49.384;8.292;2022-10-16T23:23:00;1.20;;;0.80;;
19404;SDS011;9838;49.384;8.292;2022-10-16T23:33:02;0.90;;;0.60;;
19404;SDS011;9838;49.384;8.292;2022-10-16T23:43:03;2.60;;;1.10;;
19404;SDS011;9838;49.384;8.292;2022-10-16T23:53:05;2.00;;;0.90;;
